Time;durP1;ratioP1;P1;durP2;ratioP2;P2;SDS_P1;SDS_P2;PMS_P1;PMS_P2;Temp;Humidity;BMP_temperature;BMP_pressure;BME280_temperature;BME280_humidity;BME280_pressure;Samples;Min_cycle;Max_cycle;Signal;HPM_P1;HPM_P2
2022/04/11 00:00:28;;;;;;;;;;;;;;;7.73;100.00;99295.03;5000380;28;19932;-46
2022/04/11 00:02:53;;;;;;;;;;;;;;;8.00;100.00;99290.34;5000252;28;19925;-48
2022/04/11 00:05:18;;;;;;;;;;;;;;;8.05;100.00;99291.09;5002617;28;19925;-45
2022/04/11 00:07:44;;;;;;;;;;;;;;;7.90;100.00;99281.97;5004007;28;20052;-46
2022/04/11 00:10:09;;;;;;;;;;;;;;;7.75;100.00;99283.03;5004848;28;20505;-46
2022/04/11 00:12:36;;;;;;;;;;;;;;;7.73;100.00;99279.66;5003349;28;19933;-47
2022/04/11 00:15:04;;;;;;;;;;;;;;;7.68;100.00;99284.00;5003356;28;19932;-46
2022/04/11 00:17:29;;;;;;;;;;;;;;;7.20;100.00;99284.72;5002793;28;19922;-45
2022/04/11 00:19:54;;;;;;;;;;;;;;;7.50;100.00;99285.13;5003935;28;19929;-45
2022/04/11 00:22:19;;;;;;;;;;;;;;;7.69;100.00;99278.03;5002654;28;20676;-46
2022/04/11 00:24:45;;;;;;;;;;;;;;;7.86;100.00;99278.59;5002891;28;20386;-45
2022/04/11 00:27:10;;;;;;;;;;;;;;;7.74;100.00;99281.34;5003254;28;20402;-45
2022/04/11 00:29:35;;;;;;;;;;;;;;;7.65;100.00;99282.34;5001693;28;20570;-48
2022/04/11 00:32:00;;;;;;;;;;;;;;;7.44;100.00;99283.53;5003349;28;19921;-45
2022/04/11 00:34:26;;;;;;;;;;;;;;;7.42;100.00;99284.41;5003477;28;19922;-45
2022/04/11 00:36:51;;;;;;;;;;;;;;;7.22;100.00;99277.00;5001322;28;19932;-44
2022/04/11 00:39:16;;;;;;;;;;;;;;;7.62;100.00;99281.53;5002559;28;20685;-43
2022/04/11 00:41:41;;;;;;;;;;;;;;;7.37;100.00;99279.38;5002925;28;19976;-46
2022/04/11 00:44:07;;;;;;;;;;;;;;;7.42;100.00;99280.13;5001667;28;19921;-46
2022/04/11 00:46:32;;;;;;;;;;;;;;;7.33;100.00;99283.66;5004751;28;20024;-47
2022/04/11 00:48:57;;;;;;;;;;;;;;;7.49;100.00;99276.59;5004602;28;20393;-46
2022/04/11 00:51:23;;;;;;;;;;;;;;;7.74;100.00;99278.78;5002462;28;19917;-45
2022/04/11 00:53:49;;;;;;;;;;;;;;;7.51;100.00;99274.88;5001203;28;19960;-45
2022/04/11 00:56:16;;;;;;;;;;;;;;;7.21;100.00;99275.34;5002320;28;19991;-48
2022/04/11 00:58:41;;;;;;;;;;;;;;;7.32;100.00;99274.31;5000545;28;19921;-44
2022/04/11 01:01:06;;;;;;;;;;;;;;;7.07;100.00;99283.16;5002640;28;19929;-44
2022/04/11 01:03:32;;;;;;;;;;;;;;;7.11;100.00;99278.00;5002847;28;19917;-44
2022/04/11 01:05:57;;;;;;;;;;;;;;;7.38;100.00;99282.75;5000414;28;20579;-45
2022/04/11 01:08:22;;;;;;;;;;;;;;;7.26;100.00;99278.66;5002091;28;19925;-44
2022/04/11 01:10:48;;;;;;;;;;;;;;;7.45;100.00;99277.50;5002009;28;19913;-43
2022/04/11 01:13:13;;;;;;;;;;;;;;;7.62;100.00;99277.28;5001179;28;19930;-46
2022/04/11 01:15:38;;;;;;;;;;;;;;;7.52;100.00;99275.72;4999583;28;19957;-46
2022/04/11 01:18:04;;;;;;;;;;;;;;;6.95;100.00;99276.50;5001848;28;20275;-44
2022/04/11 01:20:29;;;;;;;;;;;;;;;7.59;100.00;99279.88;5003028;28;20614;-46
2022/04/11 01:22:54;;;;;;;;;;;;;;;7.11;100.00;99280.56;4998208;28;19921;-44
2022/04/11 01:25:20;;;;;;;;;;;;;;;6.93;100.00;99280.78;5000777;28;19921;-45
2022/04/11 01:27:46;;;;;;;;;;;;;;;6.72;100.00;99281.06;5001209;28;19921;-45
2022/04/11 01:30:12;;;;;;;;;;;;;;;6.79;100.00;99283.53;5001836;28;19941;-44
2022/04/11 01:32:38;;;;;;;;;;;;;;;6.48;100.00;99272.81;5000323;28;19967;-47
2022/04/11 01:35:03;;;;;;;;;;;;;;;6.97;100.00;99274.78;5002463;28;20322;-44
2022/04/11 01:37:28;;;;;;;;;;;;;;;6.64;100.00;99273.50;5002017;28;19957;-44
2022/04/11 01:39:54;;;;;;;;;;;;;;;6.43;100.00;99264.31;5001655;28;19932;-44
2022/04/11 01:42:19;;;;;;;;;;;;;;;6.10;100.00;99275.75;5001647;28;19924;-47
2022/04/11 01:44:44;;;;;;;;;;;;;;;6.19;100.00;99271.41;5001721;28;19932;-46
2022/04/11 01:47:09;;;;;;;;;;;;;;;6.22;100.00;99265.41;5001426;28;20286;-46
2022/04/11 01:49:35;;;;;;;;;;;;;;;6.76;100.00;99268.22;5001468;28;19921;-46
2022/04/11 01:52:00;;;;;;;;;;;;;;;6.58;100.00;99269.28;5000957;28;19914;-44
2022/04/11 01:54:25;;;;;;;;;;;;;;;6.77;100.00;99266.50;5000585;28;19918;-46
2022/04/11 01:56:50;;;;;;;;;;;;;;;6.60;100.00;99261.59;5001311;28;19962;-45
2022/04/11 01:59:16;;;;;;;;;;;;;;;6.65;100.00;99265.78;4998999;28;19928;-46
2022/04/11 02:01:42;;;;;;;;;;;;;;;6.75;100.00;99261.41;5001112;28;19921;-44
2022/04/11 02:04:07;;;;;;;;;;;;;;;6.69;100.00;99259.75;5001326;28;19929;-45
2022/04/11 02:06:32;;;;;;;;;;;;;;;6.46;100.00;99251.53;5000635;28;19976;-44
2022/04/11 02:08:57;;;;;;;;;;;;;;;6.51;100.00;99251.47;5001702;28;19924;-43
2022/04/11 02:11:23;;;;;;;;;;;;;;;7.06;100.00;99250.75;5000772;28;20432;-44
2022/04/11 02:13:48;;;;;;;;;;;;;;;6.32;100.00;99248.25;4999575;28;19992;-46
2022/04/11 02:16:13;;;;;;;;;;;;;;;6.89;100.00;99244.16;5001647;28;19987;-43
2022/04/11 02:18:38;;;;;;;;;;;;;;;6.58;100.00;99243.69;5000339;28;19917;-44
2022/04/11 02:21:04;;;;;;;;;;;;;;;6.82;100.00;99234.00;5000162;28;20432;-44
2022/04/11 02:23:29;;;;;;;;;;;;;;;6.84;100.00;99245.06;5000476;28;21011;-46
2022/04/11 02:25:54;;;;;;;;;;;;;;;6.99;100.00;99239.75;4999559;28;19923;-44
2022/04/11 02:28:20;;;;;;;;;;;;;;;6.50;100.00;99242.94;4998605;28;19927;-43
2022/04/11 02:30:46;;;;;;;;;;;;;;;5.97;100.00;99240.06;5001298;28;19925;-47
2022/04/11 02:33:11;;;;;;;;;;;;;;;6.52;100.00;99236.06;5000153;28;19952;-44
2022/04/11 02:35:36;;;;;;;;;;;;;;;6.52;100.00;99241.19;5001037;28;19921;-45
2022/04/11 02:38:02;;;;;;;;;;;;;;;6.37;100.00;99238.84;4999811;28;20370;-45
2022/04/11 02:40:27;;;;;;;;;;;;;;;6.47;100.00;99236.13;5000515;28;20409;-44
2022/04/11 02:42:52;;;;;;;;;;;;;;;6.77;100.00;99228.09;4999933;28;20313;-45
2022/04/11 02:45:17;;;;;;;;;;;;;;;5.87;100.00;99229.06;5000943;28;20024;-44
2022/04/11 02:47:43;;;;;;;;;;;;;;;6.80;100.00;99221.25;4998836;28;20120;-45
2022/04/11 02:50:08;;;;;;;;;;;;;;;6.22;100.00;99222.78;5000286;28;19972;-45
2022/04/11 02:52:34;;;;;;;;;;;;;;;6.39;100.00;99221.75;4999990;28;19925;-45
2022/04/11 02:55:00;;;;;;;;;;;;;;;6.45;100.00;99211.44;4998644;28;19925;-45
2022/04/11 02:57:25;;;;;;;;;;;;;;;6.33;100.00;99219.25;5000579;28;19929;-46
2022/04/11 02:59:51;;;;;;;;;;;;;;;6.25;100.00;99211.69;4999800;28;19921;-45
2022/04/11 03:02:16;;;;;;;;;;;;;;;6.38;100.00;99209.81;5000364;28;20089;-46
2022/04/11 03:04:42;;;;;;;;;;;;;;;6.24;100.00;99202.31;5000309;28;19969;-44
2022/04/11 03:07:07;;;;;;;;;;;;;;;6.37;100.00;99203.03;4999320;28;19964;-44
2022/04/11 03:09:32;;;;;;;;;;;;;;;6.80;100.00;99205.03;4999593;28;19968;-47
2022/04/11 03:11:57;;;;;;;;;;;;;;;6.67;100.00;99201.78;4999146;28;20327;-45
2022/04/11 03:14:23;;;;;;;;;;;;;;;6.57;100.00;99205.31;4998788;28;19948;-44
2022/04/11 03:16:48;;;;;;;;;;;;;;;6.32;100.00;99207.31;4999736;28;19964;-44
2022/04/11 03:19:13;;;;;;;;;;;;;;;6.30;100.00;99201.41;5000285;28;20051;-44
2022/04/11 03:21:39;;;;;;;;;;;;;;;6.14;100.00;99201.56;4999950;28;20048;-44
2022/04/11 03:24:04;;;;;;;;;;;;;;;6.27;100.00;99198.00;4999938;28;19932;-45
2022/04/11 03:26:29;;;;;;;;;;;;;;;6.27;100.00;99200.56;5001003;28;19933;-45
2022/04/11 03:28:55;;;;;;;;;;;;;;;6.79;100.00;99199.06;4999508;28;20286;-44
2022/04/11 03:31:20;;;;;;;;;;;;;;;6.37;100.00;99203.88;5000149;28;20033;-47
2022/04/11 03:33:45;;;;;;;;;;;;;;;6.51;100.00;99207.97;5000699;28;19928;-45
2022/04/11 03:36:10;;;;;;;;;;;;;;;7.03;100.00;99200.44;4999460;28;19933;-44
2022/04/11 03:38:36;;;;;;;;;;;;;;;6.38;100.00;99210.66;5000583;28;19921;-44
2022/04/11 03:41:01;;;;;;;;;;;;;;;6.20;100.00;99211.75;5003465;28;19993;-46
2022/04/11 03:43:26;;;;;;;;;;;;;;;6.57;100.00;99215.56;5003710;28;19987;-45
2022/04/11 03:45:51;;;;;;;;;;;;;;;6.31;100.00;99213.31;5002345;28;19921;-45
2022/04/11 03:48:17;;;;;;;;;;;;;;;6.16;100.00;99222.84;5004217;28;19921;-44
2022/04/11 03:50:42;;;;;;;;;;;;;;;6.35;100.00;99225.22;5003019;28;20008;-44
2022/04/11 03:53:07;;;;;;;;;;;;;;;6.55;100.00;99223.25;5003390;28;19957;-45
2022/04/11 03:55:32;;;;;;;;;;;;;;;6.02;100.00;99227.25;5004232;28;19992;-45
2022/04/11 03:57:57;;;;;;;;;;;;;;;6.27;100.00;99221.03;5002886;28;19928;-44
2022/04/11 04:00:23;;;;;;;;;;;;;;;6.37;100.00;99226.03;5004385;28;19929;-43
2022/04/11 04:02:49;;;;;;;;;;;;;;;6.15;100.00;99227.97;5002864;28;19921;-45
2022/04/11 04:05:14;;;;;;;;;;;;;;;5.92;100.00;99220.50;5003876;28;19917;-45
2022/04/11 04:07:39;;;;;;;;;;;;;;;6.07;100.00;99225.50;5004316;28;19925;-45
2022/04/11 04:10:05;;;;;;;;;;;;;;;5.89;100.00;99223.09;5004010;28;19921;-45
2022/04/11 04:12:30;;;;;;;;;;;;;;;6.12;100.00;99223.75;5002734;28;19917;-45
2022/04/11 04:14:55;;;;;;;;;;;;;;;6.21;100.00;99223.66;5002100;28;20411;-44
2022/04/11 04:17:20;;;;;;;;;;;;;;;5.98;100.00;99220.50;5003521;28;19960;-45
2022/04/11 04:19:46;;;;;;;;;;;;;;;6.65;100.00;99219.72;5003814;28;19926;-44
2022/04/11 04:22:11;;;;;;;;;;;;;;;6.53;100.00;99225.00;5003439;28;20006;-46
2022/04/11 04:24:36;;;;;;;;;;;;;;;6.14;100.00;99221.19;5003084;28;19921;-44
2022/04/11 04:27:02;;;;;;;;;;;;;;;6.36;100.00;99227.72;5001289;28;19925;-44
2022/04/11 04:29:27;;;;;;;;;;;;;;;5.69;100.00;99224.13;5001094;28;20467;-44
2022/04/11 04:31:54;;;;;;;;;;;;;;;6.24;100.00;99226.16;5000841;28;19917;-44
2022/04/11 04:34:21;;;;;;;;;;;;;;;6.11;100.00;99222.03;5000948;28;20226;-45
2022/04/11 04:36:46;;;;;;;;;;;;;;;6.37;100.00;99224.31;5000284;28;20435;-45
2022/04/11 04:39:11;;;;;;;;;;;;;;;6.11;100.00;99221.19;5002354;28;19932;-45
2022/04/11 04:41:37;;;;;;;;;;;;;;;5.89;100.00;99215.44;5001449;28;20776;-44
2022/04/11 04:44:02;;;;;;;;;;;;;;;6.38;100.00;99214.94;5002495;28;20521;-48
2022/04/11 04:46:28;;;;;;;;;;;;;;;6.56;100.00;99213.88;5003139;28;20326;-45
2022/04/11 04:48:53;;;;;;;;;;;;;;;6.14;100.00;99222.03;5002997;28;19986;-45
2022/04/11 04:51:18;;;;;;;;;;;;;;;6.37;100.00;99214.09;5000609;28;19922;-45
2022/04/11 04:53:43;;;;;;;;;;;;;;;6.72;100.00;99214.53;5001820;28;20436;-46
2022/04/11 04:56:09;;;;;;;;;;;;;;;6.57;100.00;99211.31;5001776;28;19957;-45
2022/04/11 04:58:34;;;;;;;;;;;;;;;6.32;100.00;99220.09;5002745;28;19933;-44
2022/04/11 05:00:59;;;;;;;;;;;;;;;6.40;100.00;99213.22;5002544;28;20467;-47
2022/04/11 05:03:25;;;;;;;;;;;;;;;6.35;100.00;99214.97;5001867;28;20893;-44
2022/04/11 05:05:50;;;;;;;;;;;;;;;6.69;100.00;99210.31;5002441;28;20331;-44
2022/04/11 05:08:15;;;;;;;;;;;;;;;6.67;100.00;99207.75;5002871;28;20417;-45
2022/04/11 05:10:40;;;;;;;;;;;;;;;6.88;100.00;99210.88;5004064;28;20035;-45
2022/04/11 05:13:05;;;;;;;;;;;;;;;6.80;100.00;99208.44;5001796;28;19914;-45
2022/04/11 05:15:31;;;;;;;;;;;;;;;6.48;100.00;99211.41;5002640;28;19925;-45
2022/04/11 05:17:56;;;;;;;;;;;;;;;6.68;100.00;99214.56;5002360;28;20016;-45
2022/04/11 05:20:22;;;;;;;;;;;;;;;6.76;100.00;99216.19;5002543;28;20617;-45
2022/04/11 05:22:47;;;;;;;;;;;;;;;7.09;100.00;99217.41;5001419;28;19913;-46
2022/04/11 05:25:13;;;;;;;;;;;;;;;7.02;100.00;99214.09;5002997;28;19928;-45
2022/04/11 05:27:38;;;;;;;;;;;;;;;6.90;100.00;99220.25;5001894;28;20020;-46
2022/04/11 05:30:05;;;;;;;;;;;;;;;6.59;100.00;99208.72;5002753;28;19968;-47
2022/04/11 05:32:31;;;;;;;;;;;;;;;7.05;100.00;99220.91;5002272;28;19917;-47
2022/04/11 05:34:56;;;;;;;;;;;;;;;6.91;100.00;99226.19;5001551;28;19918;-44
2022/04/11 05:37:21;;;;;;;;;;;;;;;6.58;100.00;99219.81;5001349;28;19925;-45
2022/04/11 05:39:47;;;;;;;;;;;;;;;6.41;100.00;99227.69;5002287;28;19925;-45
2022/04/11 05:42:12;;;;;;;;;;;;;;;6.92;100.00;99227.91;5000486;28;19917;-44
2022/04/11 05:44:37;;;;;;;;;;;;;;;7.14;100.00;99225.91;5000972;28;19927;-46
2022/04/11 05:47:02;;;;;;;;;;;;;;;6.83;100.00;99228.03;5001082;28;20411;-45
2022/04/11 05:49:28;;;;;;;;;;;;;;;6.89;100.00;99230.53;5000176;28;20359;-46
2022/04/11 05:51:53;;;;;;;;;;;;;;;7.21;100.00;99226.66;5000317;28;19944;-46
2022/04/11 05:54:18;;;;;;;;;;;;;;;7.04;100.00;99221.75;5003045;28;19927;-45
2022/04/11 05:56:43;;;;;;;;;;;;;;;7.20;100.00;99218.09;5002194;28;19931;-46
2022/04/11 05:59:09;;;;;;;;;;;;;;;7.15;100.00;99216.50;5001368;28;20037;-46
2022/04/11 06:01:34;;;;;;;;;;;;;;;7.54;100.00;99215.88;5000889;28;20277;-45
2022/04/11 06:04:00;;;;;;;;;;;;;;;7.31;100.00;99215.41;5000381;28;19955;-44
2022/04/11 06:06:25;;;;;;;;;;;;;;;7.30;100.00;99208.59;5001418;28;19925;-45
2022/04/11 06:08:51;;;;;;;;;;;;;;;7.70;100.00;99207.94;5000832;28;19932;-46
2022/04/11 06:11:16;;;;;;;;;;;;;;;7.89;100.00;99209.31;4999654;28;19917;-45
2022/04/11 06:13:43;;;;;;;;;;;;;;;7.28;100.00;99208.59;4999358;28;19929;-47
2022/04/11 06:16:08;;;;;;;;;;;;;;;7.79;100.00;99210.34;5000365;28;20004;-47
2022/04/11 06:18:33;;;;;;;;;;;;;;;7.86;100.00;99204.22;5000077;28;20047;-46
2022/04/11 06:20:58;;;;;;;;;;;;;;;8.10;100.00;99202.09;4999705;28;20003;-46
2022/04/11 06:23:24;;;;;;;;;;;;;;;8.31;100.00;99205.97;5013480;28;19964;-46
2022/04/11 06:25:49;;;;;;;;;;;;;;;8.14;100.00;99203.72;5000525;28;20133;-49
2022/04/11 06:28:14;;;;;;;;;;;;;;;8.09;100.00;99203.81;4999909;28;19921;-48
2022/04/11 06:30:39;;;;;;;;;;;;;;;8.61;100.00;99212.25;4998954;28;19922;-47
2022/04/11 06:33:05;;;;;;;;;;;;;;;8.76;100.00;99213.66;4998763;28;19928;-46
2022/04/11 06:35:30;;;;;;;;;;;;;;;8.67;100.00;99209.56;5000920;28;20870;-45
2022/04/11 06:37:55;;;;;;;;;;;;;;;9.06;100.00;99206.16;4998686;28;20020;-45
2022/04/11 06:40:20;;;;;;;;;;;;;;;8.95;100.00;99203.81;4999973;28;19921;-45
2022/04/11 06:42:45;;;;;;;;;;;;;;;9.45;100.00;99199.25;5001512;28;19928;-46
2022/04/11 06:45:11;;;;;;;;;;;;;;;9.36;100.00;99195.16;5000081;28;19925;-48
2022/04/11 06:47:36;;;;;;;;;;;;;;;9.81;100.00;99187.19;5001530;28;20418;-45
2022/04/11 06:50:01;;;;;;;;;;;;;;;9.54;100.00;99193.03;5001231;28;19914;-47
2022/04/11 06:52:26;;;;;;;;;;;;;;;9.77;100.00;99184.72;5001567;28;19944;-44
2022/04/11 06:54:52;;;;;;;;;;;;;;;9.76;100.00;99185.59;5000217;28;19983;-44
2022/04/11 06:57:17;;;;;;;;;;;;;;;9.63;100.00;99193.63;5000169;28;20416;-46
2022/04/11 06:59:42;;;;;;;;;;;;;;;9.51;100.00;99182.81;5001893;28;20488;-45
2022/04/11 07:02:07;;;;;;;;;;;;;;;9.78;100.00;99181.25;4997755;28;19921;-45
2022/04/11 07:04:33;;;;;;;;;;;;;;;9.97;100.00;99182.50;5000825;28;19925;-47
2022/04/11 07:06:58;;;;;;;;;;;;;;;9.96;100.00;99185.94;5001247;28;20020;-47
2022/04/11 07:09:23;;;;;;;;;;;;;;;10.06;100.00;99186.53;5000334;28;19984;-47
2022/04/11 07:11:48;;;;;;;;;;;;;;;10.01;100.00;99178.09;4999751;28;19921;-46
2022/04/11 07:14:14;;;;;;;;;;;;;;;10.35;100.00;99183.19;5003025;28;19956;-48
2022/04/11 07:16:39;;;;;;;;;;;;;;;10.29;100.00;99178.22;5004196;28;20160;-45
2022/04/11 07:19:04;;;;;;;;;;;;;;;10.32;100.00;99178.13;5004866;28;19913;-47
2022/04/11 07:21:29;;;;;;;;;;;;;;;10.74;100.00;99175.22;5005050;28;19995;-45
2022/04/11 07:23:55;;;;;;;;;;;;;;;10.26;100.00;99175.69;5005866;28;20023;-46
2022/04/11 07:26:20;;;;;;;;;;;;;;;10.53;100.00;99170.69;5005051;28;20345;-45
2022/04/11 07:28:47;;;;;;;;;;;;;;;10.33;97.89;99173.81;5004552;28;19925;-45
2022/04/11 07:31:12;;;;;;;;;;;;;;;11.47;96.50;99181.50;5004575;28;19968;-46
2022/04/11 07:33:37;;;;;;;;;;;;;;;11.17;94.54;99181.59;5005551;28;19956;-44
2022/04/11 07:36:03;;;;;;;;;;;;;;;10.79;94.64;99181.06;5004137;28;19925;-46
2022/04/11 07:38:28;;;;;;;;;;;;;;;11.26;93.91;99181.31;5004372;28;19951;-44
2022/04/11 07:40:53;;;;;;;;;;;;;;;11.98;92.15;99175.53;5004883;28;19921;-45
2022/04/11 07:43:19;;;;;;;;;;;;;;;12.11;90.33;99179.38;5004371;28;19921;-45
2022/04/11 07:45:44;;;;;;;;;;;;;;;11.70;89.94;99176.44;5004040;28;19926;-47
2022/04/11 07:48:09;;;;;;;;;;;;;;;11.64;89.60;99181.81;5003199;28;19929;-47
2022/04/11 07:50:34;;;;;;;;;;;;;;;12.20;90.47;99187.66;5004428;28;19948;-45
2022/04/11 07:53:00;;;;;;;;;;;;;;;12.93;85.99;99179.78;5002993;28;19929;-47
2022/04/11 07:55:25;;;;;;;;;;;;;;;12.85;81.53;99176.63;5003763;28;20408;-46
2022/04/11 07:57:51;;;;;;;;;;;;;;;13.30;79.98;99173.19;5003279;28;19921;-46
2022/04/11 08:00:16;;;;;;;;;;;;;;;13.77;81.25;99177.28;5002796;28;19979;-50
2022/04/11 08:02:41;;;;;;;;;;;;;;;13.89;78.68;99170.75;5003941;28;20523;-46
2022/04/11 08:05:07;;;;;;;;;;;;;;;13.72;81.58;99179.25;5003292;28;19932;-47
2022/04/11 08:07:35;;;;;;;;;;;;;;;14.66;80.63;99183.75;5004016;28;20398;-45
2022/04/11 08:10:01;;;;;;;;;;;;;;;14.20;77.22;99176.28;5002867;28;20436;-49
2022/04/11 08:12:26;;;;;;;;;;;;;;;14.43;75.92;99182.19;5003465;28;19913;-47
2022/04/11 08:14:51;;;;;;;;;;;;;;;13.97;78.74;99189.41;5004086;28;19928;-46
2022/04/11 08:17:17;;;;;;;;;;;;;;;14.24;75.72;99187.34;5003259;28;20000;-45
2022/04/11 08:19:42;;;;;;;;;;;;;;;14.36;76.03;99191.97;5003053;28;19932;-48
2022/04/11 08:22:07;;;;;;;;;;;;;;;14.29;74.28;99185.41;5001970;28;19943;-45
2022/04/11 08:24:32;;;;;;;;;;;;;;;14.78;76.33;99188.41;5002091;28;19924;-47
2022/04/11 08:26:58;;;;;;;;;;;;;;;14.51;73.11;99190.47;5002935;28;19932;-47
2022/04/11 08:29:24;;;;;;;;;;;;;;;15.60;71.53;99192.28;5002568;28;20375;-47
2022/04/11 08:31:49;;;;;;;;;;;;;;;14.43;70.40;99197.72;5002177;28;19976;-46
2022/04/11 08:34:14;;;;;;;;;;;;;;;14.82;69.26;99199.47;5018909;28;19945;-50
2022/04/11 08:36:39;;;;;;;;;;;;;;;14.66;72.57;99198.47;5003297;28;19917;-50
2022/04/11 08:39:05;;;;;;;;;;;;;;;14.56;69.71;99191.13;5003051;28;19917;-47
2022/04/11 08:41:33;;;;;;;;;;;;;;;15.06;65.08;99187.94;5002419;28;19921;-47
2022/04/11 08:44:00;;;;;;;;;;;;;;;14.41;69.48;99189.19;5002860;28;19921;-46
2022/04/11 08:46:25;;;;;;;;;;;;;;;14.99;68.53;99180.53;5001993;28;19956;-48
2022/04/11 08:48:50;;;;;;;;;;;;;;;14.72;73.23;99177.47;5002876;28;20369;-46
2022/04/11 08:51:15;;;;;;;;;;;;;;;16.48;68.15;99167.88;5002192;28;19988;-46
2022/04/11 08:53:42;;;;;;;;;;;;;;;15.44;71.65;99177.47;5000626;28;19928;-45
2022/04/11 08:56:07;;;;;;;;;;;;;;;14.58;65.34;99165.97;5000900;28;19917;-49
2022/04/11 08:58:32;;;;;;;;;;;;;;;14.48;58.71;99163.84;5003083;28;20155;-46
2022/04/11 09:00:58;;;;;;;;;;;;;;;15.59;63.54;99167.25;5002404;28;19917;-50
2022/04/11 09:03:23;;;;;;;;;;;;;;;15.53;62.54;99170.13;5000049;28;20184;-48
2022/04/11 09:06:04;;;;;;;;;;;;;;;15.32;56.56;99162.50;5002397;28;19943;-49
2022/04/11 09:08:37;;;;;;;;;;;;;;;15.13;58.92;99156.53;5002248;28;19921;-47
2022/04/11 09:11:02;;;;;;;;;;;;;;;16.61;56.95;99150.69;4999790;28;19932;-49
2022/04/11 09:13:27;;;;;;;;;;;;;;;14.63;59.76;99163.19;5000941;28;19921;-47
2022/04/11 09:15:54;;;;;;;;;;;;;;;16.40;58.05;99151.84;5001423;28;19921;-48
2022/04/11 09:18:19;;;;;;;;;;;;;;;15.27;62.69;99148.91;5001788;28;19929;-50
2022/04/11 09:20:44;;;;;;;;;;;;;;;16.26;59.58;99148.25;4999780;28;20424;-49
2022/04/11 09:23:19;;;;;;;;;;;;;;;17.46;50.90;99133.81;5001603;28;19971;-45
2022/04/11 09:25:44;;;;;;;;;;;;;;;17.14;49.65;99133.88;5002280;28;20020;-49
2022/04/11 09:28:10;;;;;;;;;;;;;;;17.10;50.59;99131.53;5000143;28;19936;-46
2022/04/11 09:30:36;;;;;;;;;;;;;;;16.69;57.51;99143.31;5002100;28;19919;-45
2022/04/11 09:33:03;;;;;;;;;;;;;;;16.67;53.26;99134.78;4999949;28;19929;-46
2022/04/11 09:35:32;;;;;;;;;;;;;;;16.05;47.79;99133.75;5002770;28;20302;-46
2022/04/11 09:38:11;;;;;;;;;;;;;;;16.49;54.55;99140.97;5000476;28;19928;-47
2022/04/11 09:40:40;;;;;;;;;;;;;;;16.30;55.76;99141.94;5000552;28;19984;-47
2022/04/11 09:43:05;;;;;;;;;;;;;;;15.83;53.51;99129.69;5001096;28;20043;-50
2022/04/11 09:45:30;;;;;;;;;;;;;;;18.01;53.41;99123.69;4999535;28;20539;-46
2022/04/11 09:47:59;;;;;;;;;;;;;;;16.89;48.02;99123.19;5000631;28;20520;-49
2022/04/11 09:50:27;;;;;;;;;;;;;;;16.55;50.56;99121.59;5001888;28;19921;-47
2022/04/11 09:52:52;;;;;;;;;;;;;;;16.31;47.58;99122.84;4999452;28;19961;-45
2022/04/11 09:55:17;;;;;;;;;;;;;;;16.82;56.36;99127.91;5001610;28;19960;-45
2022/04/11 09:57:50;;;;;;;;;;;;;;;16.36;51.65;99124.34;5084152;27;19951;-49
2022/04/11 10:00:16;;;;;;;;;;;;;;;16.68;51.70;99120.84;5084728;28;19920;-49
2022/04/11 10:02:43;;;;;;;;;;;;;;;17.63;55.14;99116.34;5083764;28;20517;-47
2022/04/11 10:05:08;;;;;;;;;;;;;;;18.34;55.18;99115.56;5082814;28;19921;-48
2022/04/11 10:07:33;;;;;;;;;;;;;;;17.39;56.75;99110.81;5081398;28;19927;-46
2022/04/11 10:09:59;;;;;;;;;;;;;;;18.89;52.17;99101.66;5083343;28;20015;-46
2022/04/11 10:12:24;;;;;;;;;;;;;;;18.74;49.06;99092.16;5083157;28;20285;-47
2022/04/11 10:14:49;;;;;;;;;;;;;;;18.49;52.03;99100.72;5086709;28;20560;-50
2022/04/11 10:17:16;;;;;;;;;;;;;;;18.99;50.01;99087.06;5083936;28;20804;-48
2022/04/11 10:19:42;;;;;;;;;;;;;;;19.67;48.60;99071.28;5083944;28;20541;-46
2022/04/11 10:22:14;;;;;;;;;;;;;;;19.54;51.20;99082.56;5081001;28;19977;-46
2022/04/11 10:24:55;;;;;;;;;;;;;;;18.95;47.61;99074.31;5082680;28;19920;-47
2022/04/11 10:27:22;;;;;;;;;;;;;;;18.45;44.80;99071.41;5067798;28;19986;-48
2022/04/11 10:29:49;;;;;;;;;;;;;;;19.35;45.90;99067.28;5083819;28;19923;-46
2022/04/11 10:32:21;;;;;;;;;;;;;;;17.67;47.72;99065.75;5080816;28;20778;-47
2022/04/11 10:34:46;;;;;;;;;;;;;;;17.69;50.88;99071.72;5079975;28;19982;-50
2022/04/11 10:37:12;;;;;;;;;;;;;;;18.84;45.40;99053.28;5083498;28;20376;-45
2022/04/11 10:39:39;;;;;;;;;;;;;;;17.57;48.37;99057.66;5080857;28;20065;-47
2022/04/11 10:42:09;;;;;;;;;;;;;;;18.60;46.99;99049.53;5081591;28;19938;-46
2022/04/11 10:44:35;;;;;;;;;;;;;;;18.17;50.13;99056.63;5080385;28;19924;-45
2022/04/11 10:47:12;;;;;;;;;;;;;;;18.53;48.45;99053.47;5084974;28;19916;-47
2022/04/11 10:49:53;;;;;;;;;;;;;;;18.51;47.56;99046.69;5082448;28;19927;-47
2022/04/11 10:52:33;;;;;;;;;;;;;;;18.14;44.03;99041.19;5080629;28;20277;-45
2022/04/11 10:55:08;;;;;;;;;;;;;;;18.23;48.51;99045.00;5085158;28;19972;-45
2022/04/11 10:57:34;;;;;;;;;;;;;;;20.19;51.19;99046.78;5084240;28;19970;-48
2022/04/11 11:00:15;;;;;;;;;;;;;;;18.48;45.71;99026.03;5083400;28;19920;-46
2022/04/11 11:02:46;;;;;;;;;;;;;;;20.34;48.62;99029.97;5081104;28;20290;-47
2022/04/11 11:05:30;;;;;;;;;;;;;;;19.39;46.84;99026.97;5082802;28;19975;-48
2022/04/11 11:08:11;;;;;;;;;;;;;;;20.01;44.51;99022.78;5077758;28;20484;-47
2022/04/11 11:10:40;;;;;;;;;;;;;;;20.78;43.83;99018.09;5071538;28;20003;-48
2022/04/11 11:13:28;;;;;;;;;;;;;;;20.68;48.81;99024.94;5070614;28;19917;-46
2022/04/11 11:16:09;;;;;;;;;;;;;;;21.05;49.96;99014.34;5069101;28;20003;-50
2022/04/11 11:18:46;;;;;;;;;;;;;;;19.85;40.48;99002.09;5068899;28;20832;-45
2022/04/11 11:21:15;;;;;;;;;;;;;;;20.65;44.27;99012.09;5071304;28;20416;-48
2022/04/11 11:23:40;;;;;;;;;;;;;;;22.13;43.20;99007.75;5071056;28;20184;-49
2022/04/11 11:26:07;;;;;;;;;;;;;;;20.55;45.61;99014.53;5072665;28;19912;-47
2022/04/11 11:28:32;;;;;;;;;;;;;;;21.05;39.41;99003.88;5070985;28;19927;-46
2022/04/11 11:30:57;;;;;;;;;;;;;;;20.70;48.83;99009.97;5070912;28;19920;-48
2022/04/11 11:33:22;;;;;;;;;;;;;;;20.58;42.03;99000.41;5071396;28;19920;-46
2022/04/11 11:35:49;;;;;;;;;;;;;;;21.16;39.99;98995.22;5070974;28;19997;-47
2022/04/11 11:38:14;;;;;;;;;;;;;;;21.28;49.45;99005.63;5069192;28;19912;-49
2022/04/11 11:40:52;;;;;;;;;;;;;;;20.45;44.31;98993.41;5071230;28;19923;-46
2022/04/11 11:43:17;;;;;;;;;;;;;;;19.26;43.28;99001.81;5072432;28;19927;-47
2022/04/11 11:45:43;;;;;;;;;;;;;;;18.53;48.12;99001.31;5069205;28;20446;-47
2022/04/11 11:48:18;;;;;;;;;;;;;;;20.26;40.13;98980.00;5070345;28;20376;-47
2022/04/11 11:50:44;;;;;;;;;;;;;;;21.33;49.21;98986.94;5085099;28;20292;-47
2022/04/11 11:53:12;;;;;;;;;;;;;;;21.20;44.83;98981.78;5070864;28;20276;-48
2022/04/11 11:55:49;;;;;;;;;;;;;;;22.24;47.43;98977.25;5068749;28;19916;-47
2022/04/11 11:58:14;;;;;;;;;;;;;;;22.16;46.86;98977.00;5069682;28;19969;-49
2022/04/11 12:00:39;;;;;;;;;;;;;;;20.35;40.02;98968.88;5071446;28;19916;-48
2022/04/11 12:05:56;;;;;;;;;;;;;;;20.52;48.69;98972.03;5071770;28;19946;-46
2022/04/11 12:08:21;;;;;;;;;;;;;;;22.05;47.96;98955.06;5071748;28;19928;-46
2022/04/11 12:10:47;;;;;;;;;;;;;;;21.39;45.04;98948.94;5070842;28;19916;-46
2022/04/11 12:13:22;;;;;;;;;;;;;;;21.03;44.12;98948.22;5064885;28;19920;-48
2022/04/11 12:15:47;;;;;;;;;;;;;;;20.77;54.67;98958.84;5065799;28;19928;-46
2022/04/11 12:18:15;;;;;;;;;;;;;;;19.91;52.81;98956.38;5065681;28;20387;-49
2022/04/11 12:20:40;;;;;;;;;;;;;;;20.46;48.62;98941.94;5066045;28;19924;-47
2022/04/11 12:23:05;;;;;;;;;;;;;;;21.85;43.47;98934.84;5069116;28;19917;-49
2022/04/11 12:25:50;;;;;;;;;;;;;;;21.92;42.27;98925.56;5070323;28;19916;-49
2022/04/11 12:28:15;;;;;;;;;;;;;;;20.61;43.03;98921.69;5069315;28;19921;-46
2022/04/11 12:30:44;;;;;;;;;;;;;;;18.76;42.00;98933.75;5068666;28;19919;-46
2022/04/11 12:33:10;;;;;;;;;;;;;;;20.02;44.02;98918.06;5068664;28;19927;-48
2022/04/11 12:35:36;;;;;;;;;;;;;;;20.32;43.26;98922.03;5065903;28;19995;-49
2022/04/11 12:38:07;;;;;;;;;;;;;;;21.04;46.98;98923.69;5065586;28;20007;-49
2022/04/11 12:40:42;;;;;;;;;;;;;;;21.70;42.13;98913.31;5067123;28;19935;-47
2022/04/11 12:43:08;;;;;;;;;;;;;;;21.45;45.31;98917.06;5063767;28;19916;-47